createdAt,value
2023-04-15T00:06:00.179Z,71.59
2023-04-15T00:16:09.175Z,75.29
2023-04-15T00:26:13.621Z,76.33
2023-04-15T00:36:15.813Z,76.38
2023-04-15T00:46:20.842Z,80.54
2023-04-15T00:56:24.629Z,82.92
2023-04-15T01:06:32.533Z,86.56
2023-04-15T01:16:34.658Z,87.33
2023-04-15T01:26:38.865Z,87.63
2023-04-15T01:36:42.193Z,91.36
2023-04-15T01:46:44.126Z,96.48
2023-04-15T01:56:46.020Z,100.00
2023-04-15T02:06:47.973Z,100.00
2023-04-15T02:16:49.920Z,100.00
2023-04-15T02:26:58.582Z,100.00
2023-04-15T02:37:00.745Z,100.00
2023-04-15T02:47:03.741Z,100.00
2023-04-15T02:57:07.055Z,100.00
2023-04-15T03:07:09.975Z,100.00
2023-04-15T03:17:11.857Z,100.00
2023-04-15T03:27:14.018Z,100.00
2023-04-15T03:37:15.875Z,100.00
2023-04-15T03:47:17.720Z,100.00
2023-04-15T03:57:19.597Z,100.00
2023-04-15T04:07:24.274Z,100.00
2023-04-15T04:17:26.339Z,100.00
2023-04-15T04:27:30.228Z,100.00
2023-04-15T04:37:32.189Z,100.00
2023-04-15T04:47:38.141Z,100.00
2023-04-15T04:57:40.037Z,100.00
2023-04-15T05:07:42.358Z,100.00
2023-04-15T05:17:44.955Z,100.00
2023-04-15T05:27:47.048Z,100.00
2023-04-15T05:37:48.974Z,100.00
2023-04-15T05:47:53.963Z,100.00
2023-04-15T05:57:56.111Z,100.00
2023-04-15T06:07:58.068Z,100.00
2023-04-15T06:18:00.198Z,100.00
2023-04-15T06:28:02.154Z,100.00
2023-04-15T06:38:04.118Z,100.00
2023-04-15T06:48:23.477Z,100.00
2023-04-15T06:58:34.280Z,100.00
2023-04-15T07:08:37.346Z,100.00
2023-04-15T07:18:39.357Z,100.00
2023-04-15T07:28:41.817Z,100.00
2023-04-15T07:38:43.758Z,100.00
2023-04-15T07:48:48.794Z,100.00
2023-04-15T07:58:52.777Z,100.00
2023-04-15T08:08:57.228Z,100.00
2023-04-15T08:18:59.271Z,100.00
2023-04-15T08:29:03.449Z,100.00
2023-04-15T08:39:05.590Z,100.00
2023-04-15T08:49:11.104Z,100.00
2023-04-15T08:59:15.176Z,100.00
2023-04-15T09:09:23.221Z,100.00
2023-04-15T09:19:33.900Z,100.00
2023-04-15T09:29:37.453Z,100.00
2023-04-15T09:39:50.299Z,100.00
2023-04-15T09:49:59.501Z,100.00
2023-04-15T10:00:08.480Z,100.00
2023-04-15T10:10:11.861Z,100.00
2023-04-15T10:20:30.260Z,100.00
2023-04-15T10:30:34.015Z,100.00
2023-04-15T10:40:40.177Z,100.00
2023-04-15T10:50:56.089Z,100.00
2023-04-15T11:01:02.980Z,100.00
2023-04-15T11:11:14.205Z,100.00
2023-04-15T11:21:16.708Z,100.00
2023-04-15T11:31:20.384Z,100.00
2023-04-15T11:41:23.901Z,100.00
2023-04-15T11:51:42.838Z,100.00
2023-04-15T12:01:47.847Z,96.42
2023-04-15T12:12:19.041Z,92.40
2023-04-15T12:22:22.459Z,92.06
2023-04-15T12:32:28.635Z,95.67
2023-04-15T12:42:30.592Z,96.50
2023-04-15T12:52:41.445Z,89.11
2023-04-15T13:02:44.879Z,86.73
2023-04-15T13:13:03.395Z,86.22
2023-04-15T13:23:05.298Z,81.68
2023-04-15T13:33:07.367Z,77.20
2023-04-15T13:43:15.254Z,74.53
2023-04-15T13:53:17.332Z,73.81
2023-04-15T14:03:19.385Z,74.46
2023-04-15T14:13:21.593Z,75.04
2023-04-15T14:23:24.022Z,72.93
2023-04-15T14:33:26.257Z,75.37
2023-04-15T14:43:28.299Z,74.18
2023-04-15T14:53:38.900Z,73.93
2023-04-15T15:04:18.526Z,75.04
2023-04-15T15:14:22.336Z,73.99
2023-04-15T15:24:27.355Z,75.37
2023-04-15T15:34:29.392Z,74.99
2023-04-15T15:44:38.605Z,77.26
2023-04-15T15:54:41.480Z,73.21
2023-04-15T16:04:43.887Z,72.94
2023-04-15T16:15:07.705Z,73.48
2023-04-15T16:25:11.058Z,74.68
2023-04-15T16:35:22.270Z,73.71
2023-04-15T16:45:24.874Z,74.64
2023-04-15T16:55:27.290Z,74.10
2023-04-15T17:05:54.938Z,75.54
2023-04-15T17:16:02.992Z,76.43
2023-04-15T17:26:15.762Z,78.53
2023-04-15T17:36:18.596Z,78.85
2023-04-15T17:46:25.170Z,80.86
2023-04-15T17:56:29.474Z,81.38
2023-04-15T18:06:36.128Z,81.64
2023-04-15T18:16:50.888Z,79.71
2023-04-15T18:26:54.021Z,79.61
2023-04-15T18:37:00.935Z,79.53
2023-04-15T18:47:06.780Z,79.52
2023-04-15T18:57:09.388Z,80.60
2023-04-15T19:07:13.953Z,79.96
2023-04-15T19:17:19.243Z,79.17
2023-04-15T19:27:25.485Z,79.77
2023-04-15T19:37:36.991Z,79.55
2023-04-15T19:47:48.793Z,78.43
2023-04-15T19:57:57.311Z,79.21
2023-04-15T20:08:02.083Z,80.45
2023-04-15T20:18:06.255Z,80.37
2023-04-15T20:28:08.678Z,80.14
2023-04-15T20:38:11.276Z,82.04
2023-04-15T20:48:16.953Z,82.99
2023-04-15T20:58:21.415Z,82.18
2023-04-15T21:08:29.522Z,83.28
2023-04-15T21:18:32.927Z,84.01
2023-04-15T21:28:35.271Z,84.49
2023-04-15T21:38:37.165Z,84.11
2023-04-15T21:48:40.357Z,85.13
2023-04-15T21:58:42.241Z,85.74
2023-04-15T22:08:55.327Z,86.02
2023-04-15T22:18:59.303Z,86.75
2023-04-15T22:29:02.225Z,86.34
2023-04-15T22:39:04.819Z,86.44
2023-04-15T22:49:10.494Z,86.91
2023-04-15T22:59:12.379Z,88.82
2023-04-15T23:09:14.349Z,88.96
2023-04-15T23:19:16.543Z,90.04
2023-04-15T23:29:18.544Z,90.87
2023-04-15T23:39:20.976Z,92.37
2023-04-15T23:49:22.920Z,92.51
2023-04-15T23:59:24.832Z,93.30
